sensor_id;sensor_type;location;lat;lon;timestamp;P1;durP1;ratioP1;P2;durP2;ratioP2
71867;SDS011;59738;48.324;14.230;2022-08-30T00:00:49;10.40;;;6.18;;
71867;SDS011;59738;48.324;14.230;2022-08-30T00:03:29;13.80;;;5.65;;
71867;SDS011;59738;48.324;14.230;2022-08-30T00:05:59;9.98;;;6.22;;
71867;SDS011;59738;48.324;14.230;2022-08-30T00:08:27;11.85;;;6.10;;
71867;SDS011;59738;48.324;14.230;2022-08-30T00:10:54;11.47;;;6.43;;
71867;SDS011;59738;48.324;14.230;2022-08-30T00:13:22;7.50;;;5.30;;
71867;SDS011;59738;48.324;14.230;2022-08-30T00:15:50;11.18;;;5.93;;
71867;SDS011;59738;48.324;14.230;2022-08-30T00:18:18;8.75;;;5.80;;
71867;SDS011;59738;48.324;14.230;2022-08-30T00:20:47;7.85;;;5.45;;
71867;SDS011;59738;48.324;14.230;2022-08-30T00:23:16;10.60;;;5.43;;
71867;SDS011;59738;48.324;14.230;2022-08-30T00:25:44;14.30;;;5.78;;
71867;SDS011;59738;48.324;14.230;2022-08-30T00:28:12;9.63;;;5.75;;
71867;SDS011;59738;48.324;14.230;2022-08-30T00:30:42;8.40;;;5.88;;
71867;SDS011;59738;48.324;14.230;2022-08-30T00:33:10;11.55;;;5.88;;
71867;SDS011;59738;48.324;14.230;2022-08-30T00:35:39;9.90;;;5.23;;
71867;SDS011;59738;48.324;14.230;2022-08-30T00:38:10;9.55;;;6.38;;
71867;SDS011;59738;48.324;14.230;2022-08-30T00:40:39;7.75;;;5.88;;
71867;SDS011;59738;48.324;14.230;2022-08-30T00:43:11;11.68;;;6.93;;
71867;SDS011;59738;48.324;14.230;2022-08-30T00:45:41;11.30;;;6.40;;
71867;SDS011;59738;48.324;14.230;2022-08-30T00:48:08;12.47;;;7.03;;
71867;SDS011;59738;48.324;14.230;2022-08-30T00:50:36;10.20;;;5.90;;
71867;SDS011;59738;48.324;14.230;2022-08-30T00:53:08;14.32;;;6.18;;
71867;SDS011;59738;48.324;14.230;2022-08-30T00:55:39;10.35;;;6.25;;
71867;SDS011;59738;48.324;14.230;2022-08-30T00:58:09;8.38;;;6.07;;
71867;SDS011;59738;48.324;14.230;2022-08-30T01:00:37;9.83;;;6.10;;
71867;SDS011;59738;48.324;14.230;2022-08-30T01:03:05;11.90;;;6.57;;
71867;SDS011;59738;48.324;14.230;2022-08-30T01:05:34;11.70;;;6.10;;
71867;SDS011;59738;48.324;14.230;2022-08-30T01:08:03;8.55;;;5.47;;
71867;SDS011;59738;48.324;14.230;2022-08-30T01:10:33;11.63;;;6.10;;
71867;SDS011;59738;48.324;14.230;2022-08-30T01:13:01;11.23;;;6.03;;
71867;SDS011;59738;48.324;14.230;2022-08-30T01:15:29;12.80;;;6.53;;
71867;SDS011;59738;48.324;14.230;2022-08-30T01:17:58;10.55;;;6.22;;
71867;SDS011;59738;48.324;14.230;2022-08-30T01:20:26;10.38;;;6.53;;
71867;SDS011;59738;48.324;14.230;2022-08-30T01:23:05;13.13;;;7.03;;
71867;SDS011;59738;48.324;14.230;2022-08-30T01:25:35;11.00;;;6.40;;
71867;SDS011;59738;48.324;14.230;2022-08-30T01:28:03;9.35;;;6.35;;
71867;SDS011;59738;48.324;14.230;2022-08-30T01:30:33;10.63;;;6.45;;
71867;SDS011;59738;48.324;14.230;2022-08-30T01:33:03;9.65;;;6.50;;
71867;SDS011;59738;48.324;14.230;2022-08-30T01:35:33;12.38;;;7.25;;
71867;SDS011;59738;48.324;14.230;2022-08-30T01:38:05;12.27;;;6.90;;
71867;SDS011;59738;48.324;14.230;2022-08-30T01:40:33;10.45;;;6.72;;
71867;SDS011;59738;48.324;14.230;2022-08-30T01:43:00;10.65;;;6.43;;
71867;SDS011;59738;48.324;14.230;2022-08-30T01:45:28;14.70;;;7.00;;
71867;SDS011;59738;48.324;14.230;2022-08-30T01:47:56;10.82;;;6.20;;
71867;SDS011;59738;48.324;14.230;2022-08-30T01:50:23;12.97;;;5.70;;
71867;SDS011;59738;48.324;14.230;2022-08-30T01:52:51;12.75;;;6.38;;
71867;SDS011;59738;48.324;14.230;2022-08-30T01:55:20;13.27;;;6.60;;
71867;SDS011;59738;48.324;14.230;2022-08-30T01:57:48;12.13;;;7.20;;
71867;SDS011;59738;48.324;14.230;2022-08-30T02:00:15;12.38;;;6.43;;
71867;SDS011;59738;48.324;14.230;2022-08-30T02:02:43;11.30;;;6.57;;
71867;SDS011;59738;48.324;14.230;2022-08-30T02:05:11;12.57;;;6.75;;
71867;SDS011;59738;48.324;14.230;2022-08-30T02:07:39;13.95;;;6.60;;
71867;SDS011;59738;48.324;14.230;2022-08-30T02:10:07;11.05;;;7.18;;
71867;SDS011;59738;48.324;14.230;2022-08-30T02:12:36;11.95;;;6.82;;
71867;SDS011;59738;48.324;14.230;2022-08-30T02:15:04;14.07;;;6.60;;
71867;SDS011;59738;48.324;14.230;2022-08-30T02:17:34;15.18;;;6.78;;
71867;SDS011;59738;48.324;14.230;2022-08-30T02:20:02;10.98;;;6.20;;
71867;SDS011;59738;48.324;14.230;2022-08-30T02:22:30;11.25;;;6.15;;
71867;SDS011;59738;48.324;14.230;2022-08-30T02:24:57;12.68;;;6.60;;
71867;SDS011;59738;48.324;14.230;2022-08-30T02:27:25;12.10;;;7.07;;
71867;SDS011;59738;48.324;14.230;2022-08-30T02:29:54;16.10;;;7.90;;
71867;SDS011;59738;48.324;14.230;2022-08-30T02:32:22;16.27;;;7.32;;
71867;SDS011;59738;48.324;14.230;2022-08-30T02:34:50;12.00;;;7.70;;
71867;SDS011;59738;48.324;14.230;2022-08-30T02:37:17;14.27;;;7.45;;
71867;SDS011;59738;48.324;14.230;2022-08-30T02:39:45;11.67;;;6.70;;
71867;SDS011;59738;48.324;14.230;2022-08-30T02:42:12;9.95;;;6.50;;
71867;SDS011;59738;48.324;14.230;2022-08-30T02:44:40;9.90;;;6.65;;
71867;SDS011;59738;48.324;14.230;2022-08-30T02:47:09;14.10;;;7.40;;
71867;SDS011;59738;48.324;14.230;2022-08-30T02:49:37;12.77;;;7.20;;
71867;SDS011;59738;48.324;14.230;2022-08-30T02:52:04;12.37;;;6.93;;
71867;SDS011;59738;48.324;14.230;2022-08-30T02:54:32;10.48;;;6.53;;
71867;SDS011;59738;48.324;14.230;2022-08-30T02:57:00;10.82;;;7.00;;
71867;SDS011;59738;48.324;14.230;2022-08-30T02:59:29;11.32;;;6.43;;
71867;SDS011;59738;48.324;14.230;2022-08-30T03:01:57;10.65;;;6.50;;
71867;SDS011;59738;48.324;14.230;2022-08-30T03:04:26;9.70;;;6.53;;
71867;SDS011;59738;48.324;14.230;2022-08-30T03:06:54;12.25;;;7.20;;
71867;SDS011;59738;48.324;14.230;2022-08-30T03:09:22;11.35;;;6.57;;
71867;SDS011;59738;48.324;14.230;2022-08-30T03:11:49;11.00;;;6.22;;
71867;SDS011;59738;48.324;14.230;2022-08-30T03:14:17;10.23;;;6.53;;
71867;SDS011;59738;48.324;14.230;2022-08-30T03:16:45;11.93;;;6.37;;
71867;SDS011;59738;48.324;14.230;2022-08-30T03:19:12;10.88;;;6.38;;
71867;SDS011;59738;48.324;14.230;2022-08-30T03:21:42;12.30;;;6.93;;
71867;SDS011;59738;48.324;14.230;2022-08-30T03:24:09;11.70;;;7.32;;
71867;SDS011;59738;48.324;14.230;2022-08-30T03:26:38;12.05;;;6.93;;
71867;SDS011;59738;48.324;14.230;2022-08-30T03:29:06;11.83;;;7.30;;
71867;SDS011;59738;48.324;14.230;2022-08-30T03:31:33;12.63;;;7.47;;
71867;SDS011;59738;48.324;14.230;2022-08-30T03:34:02;14.07;;;7.32;;
71867;SDS011;59738;48.324;14.230;2022-08-30T03:36:30;14.80;;;7.07;;
71867;SDS011;59738;48.324;14.230;2022-08-30T03:38:59;14.57;;;8.27;;
71867;SDS011;59738;48.324;14.230;2022-08-30T03:41:27;13.10;;;8.67;;
71867;SDS011;59738;48.324;14.230;2022-08-30T03:43:55;15.60;;;8.38;;
71867;SDS011;59738;48.324;14.230;2022-08-30T03:46:22;14.73;;;7.80;;
71867;SDS011;59738;48.324;14.230;2022-08-30T03:48:50;11.30;;;7.80;;
71867;SDS011;59738;48.324;14.230;2022-08-30T03:51:20;13.25;;;8.05;;
71867;SDS011;59738;48.324;14.230;2022-08-30T03:53:48;13.80;;;7.93;;
71867;SDS011;59738;48.324;14.230;2022-08-30T03:56:17;18.50;;;9.10;;
71867;SDS011;59738;48.324;14.230;2022-08-30T03:58:45;17.08;;;9.35;;
71867;SDS011;59738;48.324;14.230;2022-08-30T04:01:13;13.80;;;8.73;;
71867;SDS011;59738;48.324;14.230;2022-08-30T04:03:41;14.85;;;9.07;;
71867;SDS011;59738;48.324;14.230;2022-08-30T04:06:09;14.90;;;8.73;;
71867;SDS011;59738;48.324;14.230;2022-08-30T04:08:36;18.35;;;9.07;;
71867;SDS011;59738;48.324;14.230;2022-08-30T04:11:05;16.25;;;8.75;;
71867;SDS011;59738;48.324;14.230;2022-08-30T04:13:34;14.38;;;7.72;;
71867;SDS011;59738;48.324;14.230;2022-08-30T04:16:02;13.35;;;7.40;;
71867;SDS011;59738;48.324;14.230;2022-08-30T04:18:29;15.90;;;7.17;;
71867;SDS011;59738;48.324;14.230;2022-08-30T04:20:57;12.98;;;7.18;;
71867;SDS011;59738;48.324;14.230;2022-08-30T04:23:24;15.27;;;7.93;;
71867;SDS011;59738;48.324;14.230;2022-08-30T04:25:53;14.95;;;7.63;;
71867;SDS011;59738;48.324;14.230;2022-08-30T04:28:21;11.10;;;7.20;;
71867;SDS011;59738;48.324;14.230;2022-08-30T04:30:51;13.50;;;7.50;;
71867;SDS011;59738;48.324;14.230;2022-08-30T04:33:25;11.07;;;7.38;;
71867;SDS011;59738;48.324;14.230;2022-08-30T04:35:52;14.40;;;7.18;;
71867;SDS011;59738;48.324;14.230;2022-08-30T04:38:20;12.00;;;6.78;;
71867;SDS011;59738;48.324;14.230;2022-08-30T04:40:47;11.43;;;6.47;;
71867;SDS011;59738;48.324;14.230;2022-08-30T04:43:15;10.93;;;6.33;;
71867;SDS011;59738;48.324;14.230;2022-08-30T04:45:42;11.25;;;6.43;;
71867;SDS011;59738;48.324;14.230;2022-08-30T04:48:11;12.75;;;7.40;;
71867;SDS011;59738;48.324;14.230;2022-08-30T04:50:39;11.00;;;6.47;;
71867;SDS011;59738;48.324;14.230;2022-08-30T04:53:11;13.20;;;6.95;;
71867;SDS011;59738;48.324;14.230;2022-08-30T04:55:39;13.97;;;7.03;;
71867;SDS011;59738;48.324;14.230;2022-08-30T04:58:08;13.23;;;6.60;;
71867;SDS011;59738;48.324;14.230;2022-08-30T05:00:36;10.27;;;6.60;;
71867;SDS011;59738;48.324;14.230;2022-08-30T05:03:06;12.85;;;6.50;;
71867;SDS011;59738;48.324;14.230;2022-08-30T05:05:36;11.43;;;6.85;;
71867;SDS011;59738;48.324;14.230;2022-08-30T05:08:06;13.73;;;7.87;;
71867;SDS011;59738;48.324;14.230;2022-08-30T05:10:36;11.25;;;6.90;;
71867;SDS011;59738;48.324;14.230;2022-08-30T05:13:05;12.57;;;6.70;;
71867;SDS011;59738;48.324;14.230;2022-08-30T05:15:33;13.07;;;7.47;;
71867;SDS011;59738;48.324;14.230;2022-08-30T05:18:00;10.98;;;6.90;;
71867;SDS011;59738;48.324;14.230;2022-08-30T05:20:28;13.23;;;8.07;;
71867;SDS011;59738;48.324;14.230;2022-08-30T05:22:57;12.38;;;7.07;;
71867;SDS011;59738;48.324;14.230;2022-08-30T05:25:26;11.77;;;7.32;;
71867;SDS011;59738;48.324;14.230;2022-08-30T05:27:54;19.27;;;8.32;;
71867;SDS011;59738;48.324;14.230;2022-08-30T05:30:22;12.70;;;7.32;;
71867;SDS011;59738;48.324;14.230;2022-08-30T05:32:51;12.77;;;6.97;;
71867;SDS011;59738;48.324;14.230;2022-08-30T05:35:19;13.30;;;6.55;;
71867;SDS011;59738;48.324;14.230;2022-08-30T05:37:47;16.98;;;8.07;;
71867;SDS011;59738;48.324;14.230;2022-08-30T05:40:16;12.25;;;7.65;;
71867;SDS011;59738;48.324;14.230;2022-08-30T05:42:44;13.70;;;8.07;;
71867;SDS011;59738;48.324;14.230;2022-08-30T05:45:13;15.30;;;6.67;;
71867;SDS011;59738;48.324;14.230;2022-08-30T05:47:41;10.60;;;7.30;;
71867;SDS011;59738;48.324;14.230;2022-08-30T05:50:08;12.77;;;7.22;;
71867;SDS011;59738;48.324;14.230;2022-08-30T05:52:37;11.23;;;7.22;;
71867;SDS011;59738;48.324;14.230;2022-08-30T05:55:06;16.83;;;8.18;;
71867;SDS011;59738;48.324;14.230;2022-08-30T05:57:37;13.70;;;7.73;;
71867;SDS011;59738;48.324;14.230;2022-08-30T06:00:06;12.23;;;7.30;;
71867;SDS011;59738;48.324;14.230;2022-08-30T06:02:38;15.02;;;8.32;;
71867;SDS011;59738;48.324;14.230;2022-08-30T06:05:05;15.73;;;7.90;;
71867;SDS011;59738;48.324;14.230;2022-08-30T06:07:34;11.80;;;7.32;;
71867;SDS011;59738;48.324;14.230;2022-08-30T06:10:02;14.57;;;7.07;;
71867;SDS011;59738;48.324;14.230;2022-08-30T06:12:29;18.05;;;8.23;;
71867;SDS011;59738;48.324;14.230;2022-08-30T06:14:58;14.68;;;7.70;;
71867;SDS011;59738;48.324;14.230;2022-08-30T06:17:26;17.95;;;9.77;;
71867;SDS011;59738;48.324;14.230;2022-08-30T06:19:53;17.77;;;9.38;;
71867;SDS011;59738;48.324;14.230;2022-08-30T06:22:21;14.33;;;8.57;;
71867;SDS011;59738;48.324;14.230;2022-08-30T06:24:48;16.20;;;9.20;;
71867;SDS011;59738;48.324;14.230;2022-08-30T06:27:16;17.58;;;9.50;;
71867;SDS011;59738;48.324;14.230;2022-08-30T06:29:43;16.02;;;9.27;;
71867;SDS011;59738;48.324;14.230;2022-08-30T06:32:12;20.63;;;10.05;;
71867;SDS011;59738;48.324;14.230;2022-08-30T06:34:40;19.60;;;11.43;;
71867;SDS011;59738;48.324;14.230;2022-08-30T06:37:07;19.60;;;9.93;;
71867;SDS011;59738;48.324;14.230;2022-08-30T06:39:35;21.38;;;10.20;;
71867;SDS011;59738;48.324;14.230;2022-08-30T06:42:02;18.77;;;9.75;;
71867;SDS011;59738;48.324;14.230;2022-08-30T06:44:33;19.50;;;9.95;;
71867;SDS011;59738;48.324;14.230;2022-08-30T06:47:00;20.03;;;9.77;;
71867;SDS011;59738;48.324;14.230;2022-08-30T06:49:29;24.25;;;10.80;;
71867;SDS011;59738;48.324;14.230;2022-08-30T06:51:57;23.08;;;10.63;;
71867;SDS011;59738;48.324;14.230;2022-08-30T06:54:24;19.15;;;9.30;;
71867;SDS011;59738;48.324;14.230;2022-08-30T06:56:52;20.90;;;9.32;;
71867;SDS011;59738;48.324;14.230;2022-08-30T06:59:19;16.90;;;10.17;;
71867;SDS011;59738;48.324;14.230;2022-08-30T07:01:47;21.42;;;9.43;;
71867;SDS011;59738;48.324;14.230;2022-08-30T07:04:14;18.40;;;8.88;;
71867;SDS011;59738;48.324;14.230;2022-08-30T07:06:43;21.92;;;9.20;;
71867;SDS011;59738;48.324;14.230;2022-08-30T07:09:11;20.80;;;9.13;;
71867;SDS011;59738;48.324;14.230;2022-08-30T07:11:38;17.97;;;9.43;;
71867;SDS011;59738;48.324;14.230;2022-08-30T07:14:06;18.10;;;9.75;;
71867;SDS011;59738;48.324;14.230;2022-08-30T07:16:34;16.20;;;9.20;;
71867;SDS011;59738;48.324;14.230;2022-08-30T07:19:02;22.02;;;9.00;;
71867;SDS011;59738;48.324;14.230;2022-08-30T07:21:32;16.77;;;8.55;;
71867;SDS011;59738;48.324;14.230;2022-08-30T07:24:02;17.33;;;8.97;;
71867;SDS011;59738;48.324;14.230;2022-08-30T07:26:31;17.85;;;8.70;;
71867;SDS011;59738;48.324;14.230;2022-08-30T07:29:00;16.20;;;9.27;;
71867;SDS011;59738;48.324;14.230;2022-08-30T07:31:28;19.33;;;8.57;;
71867;SDS011;59738;48.324;14.230;2022-08-30T07:33:56;14.80;;;7.90;;
71867;SDS011;59738;48.324;14.230;2022-08-30T07:36:23;16.73;;;8.53;;
71867;SDS011;59738;48.324;14.230;2022-08-30T07:38:51;15.77;;;8.85;;
71867;SDS011;59738;48.324;14.230;2022-08-30T07:41:21;15.63;;;7.43;;
71867;SDS011;59738;48.324;14.230;2022-08-30T07:43:52;13.20;;;7.90;;
71867;SDS011;59738;48.324;14.230;2022-08-30T07:46:19;16.85;;;7.28;;
71867;SDS011;59738;48.324;14.230;2022-08-30T07:48:48;13.63;;;7.43;;
71867;SDS011;59738;48.324;14.230;2022-08-30T07:51:17;11.57;;;7.47;;
71867;SDS011;59738;48.324;14.230;2022-08-30T07:53:46;13.75;;;7.32;;
71867;SDS011;59738;48.324;14.230;2022-08-30T07:56:14;13.90;;;5.80;;
71867;SDS011;59738;48.324;14.230;2022-08-30T07:58:43;12.40;;;6.47;;
71867;SDS011;59738;48.324;14.230;2022-08-30T08:01:11;12.50;;;6.93;;
71867;SDS011;59738;48.324;14.230;2022-08-30T08:03:39;14.18;;;6.60;;
71867;SDS011;59738;48.324;14.230;2022-08-30T08:06:09;9.63;;;5.65;;
71867;SDS011;59738;48.324;14.230;2022-08-30T08:08:37;11.95;;;5.90;;
71867;SDS011;59738;48.324;14.230;2022-08-30T08:11:06;11.73;;;5.50;;
71867;SDS011;59738;48.324;14.230;2022-08-30T08:13:35;11.13;;;5.43;;
71867;SDS011;59738;48.324;14.230;2022-08-30T08:16:04;13.38;;;4.95;;
71867;SDS011;59738;48.324;14.230;2022-08-30T08:18:31;9.60;;;5.10;;
71867;SDS011;59738;48.324;14.230;2022-08-30T08:20:59;12.45;;;5.13;;
71867;SDS011;59738;48.324;14.230;2022-08-30T08:23:27;10.35;;;5.45;;
71867;SDS011;59738;48.324;14.230;2022-08-30T08:25:55;9.63;;;4.87;;
71867;SDS011;59738;48.324;14.230;2022-08-30T08:28:22;7.68;;;4.70;;
71867;SDS011;59738;48.324;14.230;2022-08-30T08:30:50;10.43;;;4.95;;
71867;SDS011;59738;48.324;14.230;2022-08-30T08:33:19;11.88;;;5.38;;
71867;SDS011;59738;48.324;14.230;2022-08-30T08:35:47;7.70;;;4.80;;
71867;SDS011;59738;48.324;14.230;2022-08-30T08:38:14;12.37;;;4.73;;
71867;SDS011;59738;48.324;14.230;2022-08-30T08:40:43;8.90;;;4.18;;
71867;SDS011;59738;48.324;14.230;2022-08-30T08:43:18;8.20;;;4.45;;
71867;SDS011;59738;48.324;14.230;2022-08-30T08:45:49;11.73;;;5.15;;
71867;SDS011;59738;48.324;14.230;2022-08-30T08:48:27;7.95;;;4.88;;
71867;SDS011;59738;48.324;14.230;2022-08-30T08:50:56;8.53;;;5.20;;
71867;SDS011;59738;48.324;14.230;2022-08-30T08:53:43;9.00;;;4.93;;
71867;SDS011;59738;48.324;14.230;2022-08-30T08:56:14;12.15;;;5.10;;
71867;SDS011;59738;48.324;14.230;2022-08-30T08:58:44;10.90;;;4.72;;
71867;SDS011;59738;48.324;14.230;2022-08-30T09:01:13;8.32;;;4.60;;
71867;SDS011;59738;48.324;14.230;2022-08-30T09:03:45;6.67;;;4.67;;
71867;SDS011;59738;48.324;14.230;2022-08-30T09:06:20;9.45;;;4.80;;
71867;SDS011;59738;48.324;14.230;2022-08-30T09:08:52;11.10;;;4.53;;
71867;SDS011;59738;48.324;14.230;2022-08-30T09:11:22;7.90;;;4.18;;
71867;SDS011;59738;48.324;14.230;2022-08-30T09:13:51;11.63;;;4.70;;
71867;SDS011;59738;48.324;14.230;2022-08-30T09:19:32;8.48;;;4.20;;
71867;SDS011;59738;48.324;14.230;2022-08-30T09:22:14;9.52;;;3.92;;
71867;SDS011;59738;48.324;14.230;2022-08-30T09:24:48;9.68;;;4.22;;
71867;SDS011;59738;48.324;14.230;2022-08-30T09:27:19;8.75;;;4.20;;
71867;SDS011;59738;48.324;14.230;2022-08-30T09:29:50;7.77;;;4.00;;
71867;SDS011;59738;48.324;14.230;2022-08-30T09:32:22;9.13;;;3.85;;
71867;SDS011;59738;48.324;14.230;2022-08-30T09:34:53;7.22;;;4.20;;
71867;SDS011;59738;48.324;14.230;2022-08-30T09:37:25;8.30;;;4.05;;
71867;SDS011;59738;48.324;14.230;2022-08-30T09:39:55;10.85;;;4.53;;
71867;SDS011;59738;48.324;14.230;2022-08-30T09:42:23;10.23;;;3.97;;
71867;SDS011;59738;48.324;14.230;2022-08-30T09:44:54;9.00;;;3.70;;
71867;SDS011;59738;48.324;14.230;2022-08-30T09:47:35;6.50;;;4.25;;
71867;SDS011;59738;48.324;14.230;2022-08-30T09:50:08;13.13;;;4.10;;
71867;SDS011;59738;48.324;14.230;2022-08-30T09:52:38;9.70;;;4.55;;
71867;SDS011;59738;48.324;14.230;2022-08-30T09:55:15;9.53;;;4.43;;
71867;SDS011;59738;48.324;14.230;2022-08-30T09:57:49;8.23;;;4.40;;
71867;SDS011;59738;48.324;14.230;2022-08-30T10:00:22;11.32;;;4.30;;
71867;SDS011;59738;48.324;14.230;2022-08-30T10:02:58;10.18;;;4.45;;
71867;SDS011;59738;48.324;14.230;2022-08-30T10:05:36;9.55;;;4.47;;
71867;SDS011;59738;48.324;14.230;2022-08-30T10:08:11;7.57;;;3.93;;
71867;SDS011;59738;48.324;14.230;2022-08-30T10:10:46;9.75;;;4.40;;
71867;SDS011;59738;48.324;14.230;2022-08-30T10:13:21;8.85;;;4.55;;
71867;SDS011;59738;48.324;14.230;2022-08-30T10:15:56;12.65;;;4.22;;
71867;SDS011;59738;48.324;14.230;2022-08-30T10:18:28;7.63;;;4.07;;
71867;SDS011;59738;48.324;14.230;2022-08-30T10:21:01;8.57;;;4.57;;
71867;SDS011;59738;48.324;14.230;2022-08-30T10:23:34;11.82;;;4.40;;
71867;SDS011;59738;48.324;14.230;2022-08-30T10:26:06;8.27;;;4.50;;
71867;SDS011;59738;48.324;14.230;2022-08-30T10:28:39;8.98;;;4.50;;
71867;SDS011;59738;48.324;14.230;2022-08-30T10:31:09;11.15;;;5.00;;
71867;SDS011;59738;48.324;14.230;2022-08-30T10:33:41;8.07;;;4.50;;
71867;SDS011;59738;48.324;14.230;2022-08-30T10:36:13;8.07;;;4.43;;
71867;SDS011;59738;48.324;14.230;2022-08-30T10:38:41;8.55;;;5.07;;
71867;SDS011;59738;48.324;14.230;2022-08-30T10:41:17;9.00;;;4.40;;
71867;SDS011;59738;48.324;14.230;2022-08-30T10:43:50;9.55;;;4.80;;
71867;SDS011;59738;48.324;14.230;2022-08-30T10:46:23;8.50;;;4.13;;
71867;SDS011;59738;48.324;14.230;2022-08-30T10:48:54;9.70;;;4.20;;
71867;SDS011;59738;48.324;14.230;2022-08-30T10:51:27;7.82;;;4.38;;
71867;SDS011;59738;48.324;14.230;2022-08-30T10:53:59;15.15;;;4.63;;
71867;SDS011;59738;48.324;14.230;2022-08-30T10:56:32;11.25;;;4.82;;
71867;SDS011;59738;48.324;14.230;2022-08-30T10:59:01;8.10;;;4.20;;
71867;SDS011;59738;48.324;14.230;2022-08-30T11:01:36;7.00;;;4.38;;
71867;SDS011;59738;48.324;14.230;2022-08-30T11:07:32;9.32;;;4.63;;
71867;SDS011;59738;48.324;14.230;2022-08-30T11:10:16;9.27;;;4.53;;
71867;SDS011;59738;48.324;14.230;2022-08-30T11:12:52;11.87;;;5.00;;
71867;SDS011;59738;48.324;14.230;2022-08-30T11:15:24;8.82;;;4.57;;
71867;SDS011;59738;48.324;14.230;2022-08-30T11:17:55;11.40;;;5.40;;
71867;SDS011;59738;48.324;14.230;2022-08-30T11:20:32;12.40;;;4.68;;
71867;SDS011;59738;48.324;14.230;2022-08-30T11:23:23;12.65;;;4.60;;
71867;SDS011;59738;48.324;14.230;2022-08-30T11:25:56;12.50;;;4.90;;
71867;SDS011;59738;48.324;14.230;2022-08-30T11:34:14;9.85;;;4.80;;
71867;SDS011;59738;48.324;14.230;2022-08-30T11:37:34;13.73;;;4.63;;
71867;SDS011;59738;48.324;14.230;2022-08-30T11:40:07;11.20;;;4.43;;
71867;SDS011;59738;48.324;14.230;2022-08-30T11:42:51;11.68;;;4.80;;
71867;SDS011;59738;48.324;14.230;2022-08-30T11:51:30;11.65;;;4.93;;
71867;SDS011;59738;48.324;14.230;2022-08-30T11:54:20;10.70;;;4.30;;
71867;SDS011;59738;48.324;14.230;2022-08-30T11:56:57;10.07;;;4.30;;
71867;SDS011;59738;48.324;14.230;2022-08-30T11:59:32;11.05;;;4.82;;
71867;SDS011;59738;48.324;14.230;2022-08-30T12:02:04;12.02;;;4.40;;
71867;SDS011;59738;48.324;14.230;2022-08-30T12:04:40;10.52;;;4.53;;
71867;SDS011;59738;48.324;14.230;2022-08-30T12:07:10;10.30;;;4.47;;
71867;SDS011;59738;48.324;14.230;2022-08-30T12:12:47;9.02;;;4.00;;
71867;SDS011;59738;48.324;14.230;2022-08-30T12:18:19;7.75;;;4.13;;
71867;SDS011;59738;48.324;14.230;2022-08-30T12:20:56;7.40;;;4.23;;
71867;SDS011;59738;48.324;14.230;2022-08-30T12:23:32;8.07;;;4.10;;
71867;SDS011;59738;48.324;14.230;2022-08-30T12:26:08;8.25;;;4.82;;
71867;SDS011;59738;48.324;14.230;2022-08-30T12:28:39;10.88;;;4.78;;
71867;SDS011;59738;48.324;14.230;2022-08-30T12:31:09;8.60;;;4.50;;
71867;SDS011;59738;48.324;14.230;2022-08-30T12:33:39;9.83;;;3.97;;
71867;SDS011;59738;48.324;14.230;2022-08-30T12:36:11;11.02;;;4.55;;
71867;SDS011;59738;48.324;14.230;2022-08-30T12:38:40;9.27;;;3.90;;
71867;SDS011;59738;48.324;14.230;2022-08-30T12:41:15;9.32;;;3.97;;
71867;SDS011;59738;48.324;14.230;2022-08-30T12:43:48;9.18;;;3.47;;
71867;SDS011;59738;48.324;14.230;2022-08-30T12:46:17;8.07;;;4.40;;
71867;SDS011;59738;48.324;14.230;2022-08-30T12:48:46;6.53;;;3.80;;
71867;SDS011;59738;48.324;14.230;2022-08-30T12:51:28;6.63;;;3.90;;
71867;SDS011;59738;48.324;14.230;2022-08-30T12:54:03;10.10;;;4.40;;
71867;SDS011;59738;48.324;14.230;2022-08-30T12:56:46;9.00;;;3.88;;
71867;SDS011;59738;48.324;14.230;2022-08-30T13:02:25;10.27;;;4.03;;
71867;SDS011;59738;48.324;14.230;2022-08-30T13:04:54;7.05;;;4.10;;
71867;SDS011;59738;48.324;14.230;2022-08-30T13:07:23;11.10;;;3.92;;
71867;SDS011;59738;48.324;14.230;2022-08-30T13:09:58;8.02;;;4.10;;
71867;SDS011;59738;48.324;14.230;2022-08-30T13:12:27;6.87;;;3.97;;
71867;SDS011;59738;48.324;14.230;2022-08-30T13:15:07;8.32;;;4.18;;
71867;SDS011;59738;48.324;14.230;2022-08-30T13:17:42;11.15;;;4.30;;
71867;SDS011;59738;48.324;14.230;2022-08-30T13:20:21;6.70;;;4.30;;
71867;SDS011;59738;48.324;14.230;2022-08-30T13:23:00;9.48;;;4.22;;
71867;SDS011;59738;48.324;14.230;2022-08-30T13:25:30;10.60;;;3.93;;
71867;SDS011;59738;48.324;14.230;2022-08-30T13:27:58;7.18;;;4.18;;
71867;SDS011;59738;48.324;14.230;2022-08-30T13:30:26;10.90;;;3.90;;
71867;SDS011;59738;48.324;14.230;2022-08-30T13:32:56;9.93;;;3.83;;
71867;SDS011;59738;48.324;14.230;2022-08-30T13:35:23;9.05;;;3.88;;
71867;SDS011;59738;48.324;14.230;2022-08-30T13:37:51;7.47;;;3.87;;
71867;SDS011;59738;48.324;14.230;2022-08-30T13:40:19;9.18;;;4.03;;
71867;SDS011;59738;48.324;14.230;2022-08-30T13:42:47;12.13;;;4.40;;
71867;SDS011;59738;48.324;14.230;2022-08-30T13:45:15;10.85;;;4.28;;
71867;SDS011;59738;48.324;14.230;2022-08-30T13:47:44;7.38;;;3.95;;
71867;SDS011;59738;48.324;14.230;2022-08-30T13:50:14;5.63;;;3.70;;
71867;SDS011;59738;48.324;14.230;2022-08-30T13:52:41;6.10;;;3.90;;
71867;SDS011;59738;48.324;14.230;2022-08-30T13:55:09;10.15;;;3.78;;
71867;SDS011;59738;48.324;14.230;2022-08-30T13:57:37;9.63;;;3.40;;
71867;SDS011;59738;48.324;14.230;2022-08-30T14:00:05;6.82;;;4.28;;
71867;SDS011;59738;48.324;14.230;2022-08-30T14:02:38;5.67;;;3.03;;
71867;SDS011;59738;48.324;14.230;2022-08-30T14:05:07;5.15;;;3.58;;
71867;SDS011;59738;48.324;14.230;2022-08-30T14:07:36;6.05;;;3.53;;
71867;SDS011;59738;48.324;14.230;2022-08-30T14:10:04;5.13;;;3.25;;
71867;SDS011;59738;48.324;14.230;2022-08-30T14:12:32;9.18;;;3.50;;
71867;SDS011;59738;48.324;14.230;2022-08-30T14:15:00;5.60;;;3.40;;
71867;SDS011;59738;48.324;14.230;2022-08-30T14:17:28;7.38;;;3.90;;
71867;SDS011;59738;48.324;14.230;2022-08-30T14:19:57;11.40;;;3.75;;
71867;SDS011;59738;48.324;14.230;2022-08-30T14:22:26;5.35;;;3.40;;
71867;SDS011;59738;48.324;14.230;2022-08-30T14:24:55;5.40;;;3.53;;
71867;SDS011;59738;48.324;14.230;2022-08-30T14:27:22;7.07;;;3.47;;
71867;SDS011;59738;48.324;14.230;2022-08-30T14:29:50;5.55;;;3.67;;
71867;SDS011;59738;48.324;14.230;2022-08-30T14:32:18;5.38;;;3.40;;
71867;SDS011;59738;48.324;14.230;2022-08-30T14:34:45;7.68;;;3.50;;
71867;SDS011;59738;48.324;14.230;2022-08-30T14:37:13;5.50;;;3.40;;
71867;SDS011;59738;48.324;14.230;2022-08-30T14:39:41;9.53;;;3.87;;
71867;SDS011;59738;48.324;14.230;2022-08-30T14:42:09;4.90;;;3.20;;
71867;SDS011;59738;48.324;14.230;2022-08-30T14:44:37;8.18;;;3.83;;
71867;SDS011;59738;48.324;14.230;2022-08-30T14:47:05;4.32;;;3.30;;
71867;SDS011;59738;48.324;14.230;2022-08-30T14:49:33;6.38;;;3.78;;
71867;SDS011;59738;48.324;14.230;2022-08-30T14:52:01;6.10;;;3.10;;
71867;SDS011;59738;48.324;14.230;2022-08-30T14:54:29;9.65;;;3.58;;
71867;SDS011;59738;48.324;14.230;2022-08-30T14:56:58;6.97;;;3.65;;
71867;SDS011;59738;48.324;14.230;2022-08-30T14:59:28;5.90;;;3.35;;
71867;SDS011;59738;48.324;14.230;2022-08-30T15:01:58;6.88;;;3.70;;
71867;SDS011;59738;48.324;14.230;2022-08-30T15:04:26;6.00;;;3.20;;
71867;SDS011;59738;48.324;14.230;2022-08-30T15:06:56;7.63;;;3.92;;
71867;SDS011;59738;48.324;14.230;2022-08-30T15:09:24;9.13;;;3.83;;